sensor_id;sensor_type;location;lat;lon;timestamp;P1;durP1;ratioP1;P2;durP2;ratioP2
28509;SDS011;15723;55.684;37.928;2023-04-25T00:01:34;21.65;;;10.93;;
28509;SDS011;15723;55.684;37.928;2023-04-25T00:04:02;22.85;;;11.48;;
28509;SDS011;15723;55.684;37.928;2023-04-25T00:06:32;19.00;;;10.90;;
28509;SDS011;15723;55.684;37.928;2023-04-25T00:09:02;22.90;;;11.07;;
28509;SDS011;15723;55.684;37.928;2023-04-25T00:11:29;28.67;;;11.02;;
28509;SDS011;15723;55.684;37.928;2023-04-25T00:13:56;19.67;;;10.98;;
28509;SDS011;15723;55.684;37.928;2023-04-25T00:16:23;20.75;;;11.00;;
28509;SDS011;15723;55.684;37.928;2023-04-25T00:18:52;21.23;;;10.40;;
28509;SDS011;15723;55.684;37.928;2023-04-25T00:21:19;17.75;;;10.65;;
28509;SDS011;15723;55.684;37.928;2023-04-25T00:23:46;20.92;;;9.70;;
28509;SDS011;15723;55.684;37.928;2023-04-25T00:26:13;21.08;;;10.13;;
28509;SDS011;15723;55.684;37.928;2023-04-25T00:28:39;17.42;;;9.98;;
28509;SDS011;15723;55.684;37.928;2023-04-25T00:31:06;21.95;;;9.85;;
28509;SDS011;15723;55.684;37.928;2023-04-25T00:33:32;21.75;;;9.27;;
28509;SDS011;15723;55.684;37.928;2023-04-25T00:35:59;22.23;;;8.35;;
28509;SDS011;15723;55.684;37.928;2023-04-25T00:38:25;17.83;;;8.05;;
28509;SDS011;15723;55.684;37.928;2023-04-25T00:40:52;18.17;;;7.35;;
28509;SDS011;15723;55.684;37.928;2023-04-25T00:43:18;17.67;;;8.32;;
28509;SDS011;15723;55.684;37.928;2023-04-25T00:45:45;12.15;;;7.63;;
28509;SDS011;15723;55.684;37.928;2023-04-25T00:48:16;15.73;;;8.25;;
28509;SDS011;15723;55.684;37.928;2023-04-25T00:50:46;17.48;;;7.90;;
28509;SDS011;15723;55.684;37.928;2023-04-25T00:53:20;17.02;;;7.90;;
28509;SDS011;15723;55.684;37.928;2023-04-25T00:55:47;16.63;;;8.93;;
28509;SDS011;15723;55.684;37.928;2023-04-25T00:58:19;16.92;;;8.50;;
28509;SDS011;15723;55.684;37.928;2023-04-25T01:00:47;22.05;;;8.77;;
28509;SDS011;15723;55.684;37.928;2023-04-25T01:03:15;15.93;;;8.73;;
28509;SDS011;15723;55.684;37.928;2023-04-25T01:05:45;13.18;;;8.10;;
28509;SDS011;15723;55.684;37.928;2023-04-25T01:08:12;16.80;;;8.20;;
28509;SDS011;15723;55.684;37.928;2023-04-25T01:10:40;16.88;;;8.77;;
28509;SDS011;15723;55.684;37.928;2023-04-25T01:13:06;15.73;;;8.10;;
28509;SDS011;15723;55.684;37.928;2023-04-25T01:15:32;14.85;;;8.60;;
28509;SDS011;15723;55.684;37.928;2023-04-25T01:17:59;13.45;;;8.02;;
28509;SDS011;15723;55.684;37.928;2023-04-25T01:20:26;17.83;;;9.45;;
28509;SDS011;15723;55.684;37.928;2023-04-25T01:22:55;15.80;;;8.55;;
28509;SDS011;15723;55.684;37.928;2023-04-25T01:25:22;14.55;;;8.95;;
28509;SDS011;15723;55.684;37.928;2023-04-25T01:27:49;13.55;;;8.85;;
28509;SDS011;15723;55.684;37.928;2023-04-25T01:30:16;18.55;;;9.60;;
28509;SDS011;15723;55.684;37.928;2023-04-25T01:32:43;20.25;;;9.23;;
28509;SDS011;15723;55.684;37.928;2023-04-25T01:35:10;19.20;;;10.20;;
28509;SDS011;15723;55.684;37.928;2023-04-25T01:37:38;18.13;;;10.00;;
28509;SDS011;15723;55.684;37.928;2023-04-25T01:40:05;17.88;;;10.10;;
28509;SDS011;15723;55.684;37.928;2023-04-25T01:42:33;18.30;;;9.82;;
28509;SDS011;15723;55.684;37.928;2023-04-25T01:45:01;16.95;;;9.45;;
28509;SDS011;15723;55.684;37.928;2023-04-25T01:47:29;17.58;;;9.25;;
28509;SDS011;15723;55.684;37.928;2023-04-25T01:49:56;15.32;;;9.23;;
28509;SDS011;15723;55.684;37.928;2023-04-25T01:52:22;14.63;;;9.50;;
28509;SDS011;15723;55.684;37.928;2023-04-25T01:54:49;20.02;;;10.27;;
28509;SDS011;15723;55.684;37.928;2023-04-25T01:57:17;17.92;;;8.88;;
28509;SDS011;15723;55.684;37.928;2023-04-25T01:59:44;20.75;;;10.57;;
28509;SDS011;15723;55.684;37.928;2023-04-25T02:02:38;21.65;;;9.55;;
28509;SDS011;15723;55.684;37.928;2023-04-25T02:05:08;18.48;;;9.45;;
28509;SDS011;15723;55.684;37.928;2023-04-25T02:07:38;23.20;;;11.25;;
28509;SDS011;15723;55.684;37.928;2023-04-25T02:10:04;21.40;;;11.45;;
28509;SDS011;15723;55.684;37.928;2023-04-25T02:12:35;29.13;;;13.10;;
28509;SDS011;15723;55.684;37.928;2023-04-25T02:15:24;21.60;;;11.70;;
28509;SDS011;15723;55.684;37.928;2023-04-25T02:18:15;25.52;;;12.10;;
28509;SDS011;15723;55.684;37.928;2023-04-25T02:20:46;20.08;;;11.68;;
28509;SDS011;15723;55.684;37.928;2023-04-25T02:23:12;28.48;;;11.27;;
28509;SDS011;15723;55.684;37.928;2023-04-25T02:25:41;20.70;;;11.25;;
28509;SDS011;15723;55.684;37.928;2023-04-25T02:28:07;25.10;;;11.30;;
28509;SDS011;15723;55.684;37.928;2023-04-25T02:30:35;21.98;;;11.43;;
28509;SDS011;15723;55.684;37.928;2023-04-25T02:33:04;26.83;;;11.40;;
28509;SDS011;15723;55.684;37.928;2023-04-25T02:35:30;25.33;;;11.30;;
28509;SDS011;15723;55.684;37.928;2023-04-25T02:37:57;30.42;;;12.43;;
28509;SDS011;15723;55.684;37.928;2023-04-25T02:40:23;17.60;;;11.07;;
28509;SDS011;15723;55.684;37.928;2023-04-25T02:42:49;23.52;;;10.45;;
28509;SDS011;15723;55.684;37.928;2023-04-25T02:45:18;30.85;;;12.02;;
28509;SDS011;15723;55.684;37.928;2023-04-25T02:47:44;19.90;;;10.98;;
28509;SDS011;15723;55.684;37.928;2023-04-25T02:50:10;21.65;;;11.07;;
28509;SDS011;15723;55.684;37.928;2023-04-25T02:52:39;28.60;;;11.48;;
28509;SDS011;15723;55.684;37.928;2023-04-25T02:55:13;25.67;;;10.68;;
28509;SDS011;15723;55.684;37.928;2023-04-25T02:57:40;24.00;;;11.85;;
28509;SDS011;15723;55.684;37.928;2023-04-25T03:00:09;24.80;;;10.95;;
28509;SDS011;15723;55.684;37.928;2023-04-25T03:02:37;22.90;;;10.63;;
28509;SDS011;15723;55.684;37.928;2023-04-25T03:05:04;19.33;;;11.05;;
28509;SDS011;15723;55.684;37.928;2023-04-25T03:07:32;27.27;;;11.20;;
28509;SDS011;15723;55.684;37.928;2023-04-25T03:09:58;23.90;;;10.50;;
28509;SDS011;15723;55.684;37.928;2023-04-25T03:12:24;20.48;;;9.75;;
28509;SDS011;15723;55.684;37.928;2023-04-25T03:14:51;15.82;;;10.18;;
28509;SDS011;15723;55.684;37.928;2023-04-25T03:17:17;23.38;;;10.25;;
28509;SDS011;15723;55.684;37.928;2023-04-25T03:19:43;19.25;;;9.30;;
28509;SDS011;15723;55.684;37.928;2023-04-25T03:22:10;22.73;;;10.50;;
28509;SDS011;15723;55.684;37.928;2023-04-25T03:24:36;28.35;;;9.88;;
28509;SDS011;15723;55.684;37.928;2023-04-25T03:27:03;21.10;;;10.07;;
28509;SDS011;15723;55.684;37.928;2023-04-25T03:29:29;14.82;;;9.30;;
28509;SDS011;15723;55.684;37.928;2023-04-25T03:31:57;18.40;;;8.80;;
28509;SDS011;15723;55.684;37.928;2023-04-25T03:34:23;19.02;;;8.50;;
28509;SDS011;15723;55.684;37.928;2023-04-25T03:36:50;20.73;;;8.80;;
28509;SDS011;15723;55.684;37.928;2023-04-25T03:39:16;16.90;;;9.00;;
28509;SDS011;15723;55.684;37.928;2023-04-25T03:41:47;18.25;;;7.68;;
28509;SDS011;15723;55.684;37.928;2023-04-25T03:44:14;14.18;;;8.65;;
28509;SDS011;15723;55.684;37.928;2023-04-25T03:46:40;20.70;;;9.68;;
28509;SDS011;15723;55.684;37.928;2023-04-25T03:49:07;15.25;;;9.30;;
28509;SDS011;15723;55.684;37.928;2023-04-25T03:51:54;18.77;;;9.57;;
28509;SDS011;15723;55.684;37.928;2023-04-25T03:54:21;20.40;;;9.07;;
28509;SDS011;15723;55.684;37.928;2023-04-25T03:56:57;19.05;;;9.70;;
28509;SDS011;15723;55.684;37.928;2023-04-25T03:59:27;16.75;;;9.52;;
28509;SDS011;15723;55.684;37.928;2023-04-25T04:01:53;18.23;;;9.15;;
28509;SDS011;15723;55.684;37.928;2023-04-25T04:04:20;17.13;;;9.77;;
28509;SDS011;15723;55.684;37.928;2023-04-25T04:06:47;20.20;;;9.25;;
28509;SDS011;15723;55.684;37.928;2023-04-25T04:09:18;19.40;;;9.13;;
28509;SDS011;15723;55.684;37.928;2023-04-25T04:11:46;19.95;;;9.93;;
28509;SDS011;15723;55.684;37.928;2023-04-25T04:14:13;19.60;;;8.60;;
28509;SDS011;15723;55.684;37.928;2023-04-25T04:16:43;18.67;;;9.13;;
28509;SDS011;15723;55.684;37.928;2023-04-25T04:19:10;20.63;;;9.13;;
28509;SDS011;15723;55.684;37.928;2023-04-25T04:21:39;15.52;;;8.98;;
28509;SDS011;15723;55.684;37.928;2023-04-25T04:24:06;21.08;;;8.73;;
28509;SDS011;15723;55.684;37.928;2023-04-25T04:26:46;21.83;;;10.30;;
28509;SDS011;15723;55.684;37.928;2023-04-25T04:32:12;16.83;;;8.43;;
28509;SDS011;15723;55.684;37.928;2023-04-25T04:34:40;15.45;;;8.70;;
28509;SDS011;15723;55.684;37.928;2023-04-25T04:37:07;14.82;;;8.98;;
28509;SDS011;15723;55.684;37.928;2023-04-25T04:39:35;18.48;;;9.00;;
28509;SDS011;15723;55.684;37.928;2023-04-25T04:42:21;18.48;;;8.82;;
28509;SDS011;15723;55.684;37.928;2023-04-25T04:44:55;20.30;;;9.18;;
28509;SDS011;15723;55.684;37.928;2023-04-25T04:47:45;15.88;;;7.38;;
28509;SDS011;15723;55.684;37.928;2023-04-25T04:50:17;15.73;;;8.15;;
28509;SDS011;15723;55.684;37.928;2023-04-25T04:53:07;22.15;;;8.23;;
28509;SDS011;15723;55.684;37.928;2023-04-25T04:55:34;17.55;;;8.70;;
28509;SDS011;15723;55.684;37.928;2023-04-25T04:58:07;33.03;;;14.38;;
28509;SDS011;15723;55.684;37.928;2023-04-25T05:00:52;16.35;;;9.82;;
28509;SDS011;15723;55.684;37.928;2023-04-25T05:03:37;19.17;;;7.22;;
28509;SDS011;15723;55.684;37.928;2023-04-25T05:08:54;17.50;;;8.20;;
28509;SDS011;15723;55.684;37.928;2023-04-25T05:11:44;18.15;;;8.35;;
28509;SDS011;15723;55.684;37.928;2023-04-25T05:14:26;17.13;;;7.05;;
28509;SDS011;15723;55.684;37.928;2023-04-25T05:17:06;10.60;;;6.30;;
28509;SDS011;15723;55.684;37.928;2023-04-25T05:20:00;15.73;;;6.68;;
28509;SDS011;15723;55.684;37.928;2023-04-25T05:22:44;12.38;;;6.30;;
28509;SDS011;15723;55.684;37.928;2023-04-25T05:25:22;10.07;;;5.65;;
28509;SDS011;15723;55.684;37.928;2023-04-25T05:28:14;9.30;;;5.45;;
28509;SDS011;15723;55.684;37.928;2023-04-25T05:30:48;17.85;;;6.55;;
28509;SDS011;15723;55.684;37.928;2023-04-25T05:33:35;13.70;;;6.05;;
28509;SDS011;15723;55.684;37.928;2023-04-25T05:36:02;10.35;;;4.90;;
28509;SDS011;15723;55.684;37.928;2023-04-25T05:38:28;12.57;;;5.88;;
28509;SDS011;15723;55.684;37.928;2023-04-25T05:41:21;11.13;;;6.73;;
28509;SDS011;15723;55.684;37.928;2023-04-25T05:44:07;13.18;;;6.20;;
28509;SDS011;15723;55.684;37.928;2023-04-25T05:46:43;15.18;;;6.53;;
28509;SDS011;15723;55.684;37.928;2023-04-25T05:49:36;13.45;;;6.22;;
28509;SDS011;15723;55.684;37.928;2023-04-25T05:52:18;14.75;;;6.45;;
28509;SDS011;15723;55.684;37.928;2023-04-25T05:54:55;17.30;;;6.90;;
28509;SDS011;15723;55.684;37.928;2023-04-25T05:57:22;9.45;;;7.05;;
28509;SDS011;15723;55.684;37.928;2023-04-25T05:59:50;11.57;;;6.60;;
28509;SDS011;15723;55.684;37.928;2023-04-25T06:02:17;20.33;;;5.70;;
28509;SDS011;15723;55.684;37.928;2023-04-25T06:04:44;11.85;;;5.90;;
28509;SDS011;15723;55.684;37.928;2023-04-25T06:10:05;15.40;;;5.90;;
28509;SDS011;15723;55.684;37.928;2023-04-25T06:12:33;12.88;;;5.80;;
28509;SDS011;15723;55.684;37.928;2023-04-25T06:15:00;13.35;;;5.10;;
28509;SDS011;15723;55.684;37.928;2023-04-25T06:17:29;12.10;;;4.78;;
28509;SDS011;15723;55.684;37.928;2023-04-25T06:19:57;11.30;;;5.32;;
28509;SDS011;15723;55.684;37.928;2023-04-25T06:22:23;11.90;;;5.72;;
28509;SDS011;15723;55.684;37.928;2023-04-25T06:24:50;15.82;;;4.97;;
28509;SDS011;15723;55.684;37.928;2023-04-25T06:27:16;14.25;;;5.20;;
28509;SDS011;15723;55.684;37.928;2023-04-25T06:29:42;7.43;;;4.80;;
28509;SDS011;15723;55.684;37.928;2023-04-25T06:32:09;14.18;;;4.80;;
28509;SDS011;15723;55.684;37.928;2023-04-25T06:34:35;6.40;;;4.28;;
28509;SDS011;15723;55.684;37.928;2023-04-25T06:37:01;9.20;;;4.45;;
28509;SDS011;15723;55.684;37.928;2023-04-25T06:39:28;12.63;;;4.85;;
28509;SDS011;15723;55.684;37.928;2023-04-25T06:41:54;10.07;;;4.75;;
28509;SDS011;15723;55.684;37.928;2023-04-25T06:44:45;10.82;;;4.25;;
28509;SDS011;15723;55.684;37.928;2023-04-25T06:47:12;12.70;;;3.70;;
28509;SDS011;15723;55.684;37.928;2023-04-25T06:49:41;7.00;;;3.50;;
28509;SDS011;15723;55.684;37.928;2023-04-25T06:52:09;7.10;;;4.28;;
28509;SDS011;15723;55.684;37.928;2023-04-25T06:54:37;6.68;;;3.35;;
28509;SDS011;15723;55.684;37.928;2023-04-25T06:57:33;5.32;;;3.35;;
28509;SDS011;15723;55.684;37.928;2023-04-25T07:02:42;9.75;;;3.30;;
28509;SDS011;15723;55.684;37.928;2023-04-25T07:05:09;7.65;;;2.70;;
28509;SDS011;15723;55.684;37.928;2023-04-25T07:07:35;5.53;;;2.90;;
28509;SDS011;15723;55.684;37.928;2023-04-25T07:10:01;5.70;;;3.47;;
28509;SDS011;15723;55.684;37.928;2023-04-25T07:12:28;5.25;;;3.42;;
28509;SDS011;15723;55.684;37.928;2023-04-25T07:14:55;7.32;;;3.45;;
28509;SDS011;15723;55.684;37.928;2023-04-25T07:17:21;6.75;;;3.78;;
28509;SDS011;15723;55.684;37.928;2023-04-25T07:21:10;6.07;;;3.13;;
28509;SDS011;15723;55.684;37.928;2023-04-25T07:23:37;5.53;;;3.03;;
28509;SDS011;15723;55.684;37.928;2023-04-25T07:26:10;8.43;;;3.38;;
28509;SDS011;15723;55.684;37.928;2023-04-25T07:28:48;5.00;;;3.30;;
28509;SDS011;15723;55.684;37.928;2023-04-25T07:31:17;6.45;;;3.75;;
28509;SDS011;15723;55.684;37.928;2023-04-25T07:33:46;5.30;;;3.22;;
28509;SDS011;15723;55.684;37.928;2023-04-25T07:36:12;9.48;;;3.60;;
28509;SDS011;15723;55.684;37.928;2023-04-25T07:38:41;5.78;;;3.33;;
28509;SDS011;15723;55.684;37.928;2023-04-25T07:41:07;13.55;;;3.58;;
28509;SDS011;15723;55.684;37.928;2023-04-25T07:43:33;15.43;;;3.00;;
28509;SDS011;15723;55.684;37.928;2023-04-25T07:46:00;9.57;;;3.20;;
28509;SDS011;15723;55.684;37.928;2023-04-25T07:48:29;13.52;;;3.63;;
28509;SDS011;15723;55.684;37.928;2023-04-25T07:50:56;8.82;;;3.22;;
28509;SDS011;15723;55.684;37.928;2023-04-25T07:53:22;5.15;;;3.30;;
28509;SDS011;15723;55.684;37.928;2023-04-25T07:55:57;6.35;;;2.70;;
28509;SDS011;15723;55.684;37.928;2023-04-25T07:58:23;7.20;;;3.00;;
28509;SDS011;15723;55.684;37.928;2023-04-25T08:00:54;11.65;;;3.40;;
28509;SDS011;15723;55.684;37.928;2023-04-25T08:03:40;9.90;;;3.78;;
28509;SDS011;15723;55.684;37.928;2023-04-25T08:06:13;19.63;;;3.95;;
28509;SDS011;15723;55.684;37.928;2023-04-25T08:11:29;7.60;;;4.13;;
28509;SDS011;15723;55.684;37.928;2023-04-25T08:13:56;10.05;;;4.20;;
28509;SDS011;15723;55.684;37.928;2023-04-25T08:16:23;12.90;;;4.43;;
28509;SDS011;15723;55.684;37.928;2023-04-25T08:18:50;9.93;;;3.85;;
28509;SDS011;15723;55.684;37.928;2023-04-25T08:21:17;17.52;;;4.47;;
28509;SDS011;15723;55.684;37.928;2023-04-25T08:23:43;9.00;;;4.45;;
28509;SDS011;15723;55.684;37.928;2023-04-25T08:26:21;15.60;;;5.43;;
28509;SDS011;15723;55.684;37.928;2023-04-25T08:28:49;11.60;;;4.80;;
28509;SDS011;15723;55.684;37.928;2023-04-25T08:31:16;12.32;;;4.95;;
28509;SDS011;15723;55.684;37.928;2023-04-25T08:33:51;15.52;;;8.35;;
28509;SDS011;15723;55.684;37.928;2023-04-25T08:36:37;12.68;;;7.60;;
28509;SDS011;15723;55.684;37.928;2023-04-25T08:39:08;21.67;;;7.00;;
28509;SDS011;15723;55.684;37.928;2023-04-25T08:41:43;13.70;;;6.25;;
28509;SDS011;15723;55.684;37.928;2023-04-25T08:44:11;11.07;;;6.15;;
28509;SDS011;15723;55.684;37.928;2023-04-25T08:46:38;7.70;;;5.47;;
28509;SDS011;15723;55.684;37.928;2023-04-25T08:49:28;14.05;;;6.97;;
28509;SDS011;15723;55.684;37.928;2023-04-25T08:51:59;12.18;;;7.00;;
28509;SDS011;15723;55.684;37.928;2023-04-25T08:54:27;12.93;;;7.05;;
28509;SDS011;15723;55.684;37.928;2023-04-25T08:56:54;12.27;;;7.88;;
28509;SDS011;15723;55.684;37.928;2023-04-25T08:59:23;14.60;;;6.97;;
28509;SDS011;15723;55.684;37.928;2023-04-25T09:01:50;10.50;;;6.28;;
28509;SDS011;15723;55.684;37.928;2023-04-25T09:04:20;10.73;;;5.63;;
28509;SDS011;15723;55.684;37.928;2023-04-25T09:06:47;11.88;;;5.32;;
28509;SDS011;15723;55.684;37.928;2023-04-25T09:09:14;10.10;;;5.93;;
28509;SDS011;15723;55.684;37.928;2023-04-25T09:11:40;10.52;;;5.97;;
28509;SDS011;15723;55.684;37.928;2023-04-25T09:14:14;12.65;;;6.38;;
28509;SDS011;15723;55.684;37.928;2023-04-25T09:17:01;9.23;;;6.70;;
28509;SDS011;15723;55.684;37.928;2023-04-25T09:20:04;9.25;;;5.82;;
28509;SDS011;15723;55.684;37.928;2023-04-25T09:22:40;11.60;;;5.55;;
28509;SDS011;15723;55.684;37.928;2023-04-25T09:25:11;10.50;;;5.65;;
28509;SDS011;15723;55.684;37.928;2023-04-25T09:30:30;8.40;;;4.38;;
28509;SDS011;15723;55.684;37.928;2023-04-25T09:33:18;6.82;;;4.57;;
28509;SDS011;15723;55.684;37.928;2023-04-25T09:35:48;9.15;;;4.20;;
28509;SDS011;15723;55.684;37.928;2023-04-25T09:38:28;12.18;;;4.32;;
28509;SDS011;15723;55.684;37.928;2023-04-25T09:41:00;8.57;;;4.35;;
28509;SDS011;15723;55.684;37.928;2023-04-25T09:43:46;7.30;;;4.30;;
28509;SDS011;15723;55.684;37.928;2023-04-25T09:46:16;9.95;;;4.88;;
28509;SDS011;15723;55.684;37.928;2023-04-25T09:48:51;8.63;;;3.72;;
28509;SDS011;15723;55.684;37.928;2023-04-25T09:51:30;11.48;;;3.72;;
28509;SDS011;15723;55.684;37.928;2023-04-25T09:53:59;8.38;;;3.30;;
28509;SDS011;15723;55.684;37.928;2023-04-25T09:56:36;6.43;;;3.33;;
28509;SDS011;15723;55.684;37.928;2023-04-25T09:59:06;4.88;;;3.22;;
28509;SDS011;15723;55.684;37.928;2023-04-25T10:01:36;7.55;;;2.78;;
28509;SDS011;15723;55.684;37.928;2023-04-25T10:04:25;9.60;;;2.67;;
28509;SDS011;15723;55.684;37.928;2023-04-25T10:09:39;5.22;;;2.50;;
28509;SDS011;15723;55.684;37.928;2023-04-25T10:12:06;6.95;;;2.75;;
28509;SDS011;15723;55.684;37.928;2023-04-25T10:14:34;7.80;;;2.72;;
28509;SDS011;15723;55.684;37.928;2023-04-25T10:17:02;4.68;;;2.88;;
28509;SDS011;15723;55.684;37.928;2023-04-25T10:19:31;8.60;;;3.65;;
28509;SDS011;15723;55.684;37.928;2023-04-25T10:22:02;7.97;;;3.50;;
28509;SDS011;15723;55.684;37.928;2023-04-25T10:24:37;3.78;;;3.30;;
28509;SDS011;15723;55.684;37.928;2023-04-25T10:27:19;7.20;;;3.40;;
28509;SDS011;15723;55.684;37.928;2023-04-25T10:29:46;8.48;;;3.38;;
28509;SDS011;15723;55.684;37.928;2023-04-25T10:32:31;4.00;;;3.42;;
28509;SDS011;15723;55.684;37.928;2023-04-25T10:35:09;4.88;;;3.00;;
28509;SDS011;15723;55.684;37.928;2023-04-25T10:37:56;11.75;;;2.97;;
28509;SDS011;15723;55.684;37.928;2023-04-25T10:40:24;7.53;;;3.35;;
28509;SDS011;15723;55.684;37.928;2023-04-25T10:42:53;4.78;;;3.05;;
28509;SDS011;15723;55.684;37.928;2023-04-25T10:45:21;8.10;;;2.53;;
28509;SDS011;15723;55.684;37.928;2023-04-25T10:47:47;6.75;;;2.17;;
28509;SDS011;15723;55.684;37.928;2023-04-25T10:50:14;4.90;;;2.20;;
28509;SDS011;15723;55.684;37.928;2023-04-25T10:52:44;9.27;;;3.05;;
28509;SDS011;15723;55.684;37.928;2023-04-25T10:55:10;6.32;;;2.65;;
28509;SDS011;15723;55.684;37.928;2023-04-25T11:00:14;7.38;;;3.13;;
28509;SDS011;15723;55.684;37.928;2023-04-25T11:02:43;4.20;;;2.67;;
28509;SDS011;15723;55.684;37.928;2023-04-25T11:07:57;9.15;;;3.00;;
28509;SDS011;15723;55.684;37.928;2023-04-25T11:10:27;5.35;;;2.80;;
28509;SDS011;15723;55.684;37.928;2023-04-25T11:12:58;5.43;;;3.25;;
28509;SDS011;15723;55.684;37.928;2023-04-25T11:15:32;5.38;;;3.20;;
28509;SDS011;15723;55.684;37.928;2023-04-25T11:17:59;5.90;;;3.30;;
28509;SDS011;15723;55.684;37.928;2023-04-25T11:20:25;8.40;;;4.10;;
28509;SDS011;15723;55.684;37.928;2023-04-25T11:22:54;5.32;;;3.45;;
28509;SDS011;15723;55.684;37.928;2023-04-25T11:25:25;5.50;;;3.20;;
28509;SDS011;15723;55.684;37.928;2023-04-25T11:30:18;6.25;;;2.90;;
28509;SDS011;15723;55.684;37.928;2023-04-25T11:32:46;7.75;;;3.17;;
28509;SDS011;15723;55.684;37.928;2023-04-25T11:35:12;6.55;;;3.30;;
28509;SDS011;15723;55.684;37.928;2023-04-25T11:37:40;5.68;;;2.90;;
28509;SDS011;15723;55.684;37.928;2023-04-25T11:40:07;12.20;;;3.45;;
28509;SDS011;15723;55.684;37.928;2023-04-25T11:42:38;9.98;;;3.55;;
28509;SDS011;15723;55.684;37.928;2023-04-25T11:45:05;5.07;;;2.75;;
28509;SDS011;15723;55.684;37.928;2023-04-25T11:47:33;6.50;;;3.15;;
28509;SDS011;15723;55.684;37.928;2023-04-25T11:50:00;10.73;;;4.53;;
28509;SDS011;15723;55.684;37.928;2023-04-25T11:52:42;10.02;;;3.38;;
28509;SDS011;15723;55.684;37.928;2023-04-25T11:55:10;6.93;;;3.28;;
28509;SDS011;15723;55.684;37.928;2023-04-25T11:57:40;8.43;;;3.28;;
28509;SDS011;15723;55.684;37.928;2023-04-25T12:00:08;6.45;;;2.95;;
28509;SDS011;15723;55.684;37.928;2023-04-25T12:02:43;12.70;;;3.70;;
28509;SDS011;15723;55.684;37.928;2023-04-25T12:05:11;5.53;;;2.92;;
28509;SDS011;15723;55.684;37.928;2023-04-25T12:07:39;7.13;;;3.00;;
28509;SDS011;15723;55.684;37.928;2023-04-25T12:10:07;8.35;;;3.30;;
28509;SDS011;15723;55.684;37.928;2023-04-25T12:12:35;6.88;;;3.78;;
28509;SDS011;15723;55.684;37.928;2023-04-25T12:15:09;5.72;;;3.22;;
28509;SDS011;15723;55.684;37.928;2023-04-25T12:17:51;6.93;;;3.07;;
28509;SDS011;15723;55.684;37.928;2023-04-25T12:20:26;6.22;;;3.10;;
28509;SDS011;15723;55.684;37.928;2023-04-25T12:22:52;4.07;;;3.30;;
28509;SDS011;15723;55.684;37.928;2023-04-25T12:33:23;7.90;;;2.75;;
28509;SDS011;15723;55.684;37.928;2023-04-25T12:35:51;5.28;;;2.88;;
28509;SDS011;15723;55.684;37.928;2023-04-25T12:38:28;4.95;;;2.75;;
28509;SDS011;15723;55.684;37.928;2023-04-25T12:40:59;4.28;;;2.95;;
28509;SDS011;15723;55.684;37.928;2023-04-25T12:43:26;7.20;;;3.42;;
28509;SDS011;15723;55.684;37.928;2023-04-25T12:45:53;4.88;;;3.08;;
28509;SDS011;15723;55.684;37.928;2023-04-25T12:48:21;7.78;;;3.03;;
28509;SDS011;15723;55.684;37.928;2023-04-25T12:50:49;8.30;;;3.40;;
28509;SDS011;15723;55.684;37.928;2023-04-25T12:53:17;4.63;;;3.15;;
28509;SDS011;15723;55.684;37.928;2023-04-25T12:55:45;7.15;;;3.20;;
28509;SDS011;15723;55.684;37.928;2023-04-25T12:58:12;4.47;;;3.20;;
28509;SDS011;15723;55.684;37.928;2023-04-25T13:00:44;8.40;;;3.78;;
28509;SDS011;15723;55.684;37.928;2023-04-25T13:05:44;4.13;;;3.00;;
28509;SDS011;15723;55.684;37.928;2023-04-25T13:08:11;7.97;;;3.13;;
28509;SDS011;15723;55.684;37.928;2023-04-25T13:10:37;4.75;;;3.33;;
28509;SDS011;15723;55.684;37.928;2023-04-25T13:13:04;5.43;;;3.83;;
28509;SDS011;15723;55.684;37.928;2023-04-25T13:15:31;7.30;;;3.53;;
28509;SDS011;15723;55.684;37.928;2023-04-25T13:17:57;6.70;;;3.50;;
28509;SDS011;15723;55.684;37.928;2023-04-25T13:20:24;8.07;;;3.45;;
28509;SDS011;15723;55.684;37.928;2023-04-25T13:22:50;7.75;;;5.45;;
28509;SDS011;15723;55.684;37.928;2023-04-25T13:25:17;6.28;;;4.65;;
28509;SDS011;15723;55.684;37.928;2023-04-25T13:27:47;9.02;;;3.83;;
28509;SDS011;15723;55.684;37.928;2023-04-25T13:30:14;4.47;;;4.07;;
28509;SDS011;15723;55.684;37.928;2023-04-25T13:32:40;9.48;;;4.13;;
28509;SDS011;15723;55.684;37.928;2023-04-25T13:35:09;6.68;;;4.18;;
28509;SDS011;15723;55.684;37.928;2023-04-25T13:37:37;6.72;;;4.53;;
28509;SDS011;15723;55.684;37.928;2023-04-25T13:40:08;8.50;;;4.40;;
28509;SDS011;15723;55.684;37.928;2023-04-25T13:42:37;6.55;;;4.28;;
28509;SDS011;15723;55.684;37.928;2023-04-25T13:45:04;6.68;;;4.63;;
28509;SDS011;15723;55.684;37.928;2023-04-25T13:47:32;8.90;;;4.50;;
28509;SDS011;15723;55.684;37.928;2023-04-25T13:49:58;6.18;;;4.20;;
28509;SDS011;15723;55.684;37.928;2023-04-25T13:52:25;4.47;;;3.55;;
28509;SDS011;15723;55.684;37.928;2023-04-25T13:54:51;6.65;;;4.10;;
28509;SDS011;15723;55.684;37.928;2023-04-25T13:57:18;9.68;;;4.65;;
28509;SDS011;15723;55.684;37.928;2023-04-25T13:59:45;7.35;;;4.35;;
28509;SDS011;15723;55.684;37.928;2023-04-25T14:02:12;8.20;;;4.85;;
28509;SDS011;15723;55.684;37.928;2023-04-25T14:04:38;8.23;;;4.63;;
28509;SDS011;15723;55.684;37.928;2023-04-25T14:07:04;6.32;;;4.03;;
28509;SDS011;15723;55.684;37.928;2023-04-25T14:09:31;4.85;;;3.55;;
28509;SDS011;15723;55.684;37.928;2023-04-25T14:11:57;10.43;;;4.10;;
28509;SDS011;15723;55.684;37.928;2023-04-25T14:14:25;9.25;;;5.10;;
28509;SDS011;15723;55.684;37.928;2023-04-25T14:16:51;5.72;;;4.20;;
28509;SDS011;15723;55.684;37.928;2023-04-25T14:19:22;7.50;;;4.10;;
28509;SDS011;15723;55.684;37.928;2023-04-25T14:21:50;10.77;;;4.97;;
28509;SDS011;15723;55.684;37.928;2023-04-25T14:24:16;7.93;;;4.53;;
28509;SDS011;15723;55.684;37.928;2023-04-25T14:26:42;9.98;;;4.38;;
28509;SDS011;15723;55.684;37.928;2023-04-25T14:29:09;6.80;;;4.40;;
28509;SDS011;15723;55.684;37.928;2023-04-25T14:31:37;7.20;;;4.50;;
28509;SDS011;15723;55.684;37.928;2023-04-25T14:34:05;10.48;;;3.92;;
28509;SDS011;15723;55.684;37.928;2023-04-25T14:36:32;7.80;;;4.18;;
28509;SDS011;15723;55.684;37.928;2023-04-25T14:38:59;6.05;;;3.45;;
28509;SDS011;15723;55.684;37.928;2023-04-25T14:41:26;5.07;;;3.03;;
28509;SDS011;15723;55.684;37.928;2023-04-25T14:43:53;5.63;;;3.22;;
28509;SDS011;15723;55.684;37.928;2023-04-25T14:46:19;6.80;;;3.65;;
28509;SDS011;15723;55.684;37.928;2023-04-25T14:48:46;6.03;;;3.35;;
28509;SDS011;15723;55.684;37.928;2023-04-25T14:51:13;7.38;;;3.42;;
28509;SDS011;15723;55.684;37.928;2023-04-25T14:53:39;7.00;;;3.10;;
28509;SDS011;15723;55.684;37.928;2023-04-25T14:56:06;6.88;;;3.40;;
28509;SDS011;15723;55.684;37.928;2023-04-25T14:58:33;7.10;;;3.53;;
28509;SDS011;15723;55.684;37.928;2023-04-25T15:01:00;7.05;;;3.55;;
28509;SDS011;15723;55.684;37.928;2023-04-25T15:03:27;5.97;;;3.35;;
28509;SDS011;15723;55.684;37.928;2023-04-25T15:05:56;4.28;;;2.55;;
28509;SDS011;15723;55.684;37.928;2023-04-25T15:08:23;5.03;;;3.58;;
28509;SDS011;15723;55.684;37.928;2023-04-25T15:10:49;3.63;;;2.67;;
28509;SDS011;15723;55.684;37.928;2023-04-25T15:13:17;3.70;;;3.15;;
28509;SDS011;15723;55.684;37.928;2023-04-25T15:15:44;4.00;;;3.30;;
28509;SDS011;15723;55.684;37.928;2023-04-25T15:18:17;5.93;;;3.42;;
28509;SDS011;15723;55.684;37.928;2023-04-25T15:20:50;5.57;;;3.30;;
28509;SDS011;15723;55.684;37.928;2023-04-25T15:23:17;5.78;;;3.10;;